QFA36 YWLM-YMML
Flight info
| Callsign | QFA36 |
|---|---|
| Flight time | N/A |
| Altitude | 36000 |
| Route | YWLM/12 N0458F360 DCT WLM DCT LIMLO H536 OMLAV Q15 WOL H65 LEECE Q29 ML DCT YMML/34 |
| Aircraft | A321/L-V/N |
Departure
| Time | 2026-04-22 06:57 |
|---|---|
| Airport | Newcastle Airport (YWLM) |
Arrival
| Time | N/A |
|---|---|
| Airport | Melbourne Airport (YMML) |
| Time | Latitude | Longitude | Altitude | Speed | Heading |
|---|---|---|---|---|---|
| 2026-04-22 06:28 | -32.80407 | 151.84084 | 34 ft | 0 kts | 270° |
| 2026-04-22 06:31 | -32.80369 | 151.84042 | 34 ft | 0 kts | 252° |
| 2026-04-22 06:46 | -32.80367 | 151.84053 | 34 ft | 2 kts | 252° |
| 2026-04-22 06:46 | -32.80363 | 151.84073 | 34 ft | 2 kts | 271° |
| 2026-04-22 06:46 | -32.80365 | 151.84091 | 34 ft | 2 kts | 286° |
| 2026-04-22 06:47 | -32.80372 | 151.84111 | 34 ft | 2 kts | 304° |
| 2026-04-22 06:47 | -32.80377 | 151.84119 | 34 ft | 1 kts | 311° |
| 2026-04-22 06:47 | -32.80378 | 151.84120 | 34 ft | 0 kts | 310° |
| 2026-04-22 06:49 | -32.80369 | 151.84108 | 34 ft | 8 kts | 310° |
| 2026-04-22 06:49 | -32.80327 | 151.84047 | 34 ft | 9 kts | 309° |
| 2026-04-22 06:49 | -32.80281 | 151.83981 | 34 ft | 10 kts | 309° |
| 2026-04-22 06:49 | -32.80232 | 151.83910 | 34 ft | 11 kts | 309° |
| 2026-04-22 06:50 | -32.80175 | 151.83838 | 34 ft | 12 kts | 324° |
| 2026-04-22 06:50 | -32.80094 | 151.83826 | 34 ft | 12 kts | 8° |
| 2026-04-22 06:50 | -32.80006 | 151.83839 | 34 ft | 13 kts | 8° |
| 2026-04-22 06:50 | -32.79914 | 151.83856 | 34 ft | 13 kts | 9° |
| 2026-04-22 06:51 | -32.79831 | 151.83910 | 34 ft | 13 kts | 46° |
| 2026-04-22 06:51 | -32.79769 | 151.83986 | 34 ft | 12 kts | 7° |
| 2026-04-22 06:51 | -32.79706 | 151.83923 | 34 ft | 12 kts | 311° |
| 2026-04-22 06:51 | -32.79647 | 151.83844 | 34 ft | 12 kts | 311° |
| 2026-04-22 06:52 | -32.79583 | 151.83758 | 34 ft | 13 kts | 310° |
| 2026-04-22 06:52 | -32.79517 | 151.83667 | 34 ft | 13 kts | 310° |
| 2026-04-22 06:52 | -32.79451 | 151.83574 | 34 ft | 14 kts | 309° |
| 2026-04-22 06:52 | -32.79382 | 151.83476 | 34 ft | 14 kts | 310° |
| 2026-04-22 06:53 | -32.79310 | 151.83379 | 34 ft | 14 kts | 310° |
| 2026-04-22 06:53 | -32.79238 | 151.83278 | 34 ft | 15 kts | 310° |
| 2026-04-22 06:53 | -32.79163 | 151.83174 | 34 ft | 15 kts | 311° |
| 2026-04-22 06:53 | -32.79087 | 151.83070 | 34 ft | 15 kts | 310° |
| 2026-04-22 06:54 | -32.79012 | 151.82964 | 34 ft | 16 kts | 309° |
| 2026-04-22 06:54 | -32.78936 | 151.82855 | 34 ft | 16 kts | 309° |
| 2026-04-22 06:54 | -32.78858 | 151.82748 | 34 ft | 16 kts | 311° |
| 2026-04-22 06:54 | -32.78774 | 151.82634 | 34 ft | 17 kts | 310° |
| 2026-04-22 06:55 | -32.78722 | 151.82561 | 34 ft | 6 kts | 309° |
| 2026-04-22 06:55 | -32.78675 | 151.82494 | 34 ft | 10 kts | 309° |
| 2026-04-22 06:55 | -32.78629 | 151.82411 | 34 ft | 11 kts | 281° |
| 2026-04-22 06:55 | -32.78665 | 151.82323 | 34 ft | 11 kts | 221° |
| 2026-04-22 06:56 | -32.78748 | 151.82310 | 34 ft | 12 kts | 139° |
| 2026-04-22 06:56 | -32.78833 | 151.82439 | 34 ft | 39 kts | 130° |
| 2026-04-22 06:56 | -32.79265 | 151.83017 | 35 ft | 118 kts | 129° |
| 2026-04-22 06:56 | -32.80032 | 151.84091 | 89 ft | 172 kts | 135° |
| 2026-04-22 06:57 | -32.80835 | 151.85136 | 903 ft | 169 kts | 133° |
| 2026-04-22 06:57 | -32.81579 | 151.86174 | 1798 ft | 166 kts | 133° |
| 2026-04-22 06:57 | -32.82340 | 151.87239 | 2433 ft | 178 kts | 134° |
| 2026-04-22 06:57 | -32.83390 | 151.88091 | 2953 ft | 194 kts | 167° |
| 2026-04-22 06:58 | -32.84756 | 151.88040 | 3369 ft | 205 kts | 185° |
| 2026-04-22 06:58 | -32.86246 | 151.87831 | 3572 ft | 224 kts | 184° |
| 2026-04-22 06:58 | -32.87855 | 151.87642 | 3868 ft | 240 kts | 183° |
| 2026-04-22 06:58 | -32.89573 | 151.87466 | 4248 ft | 253 kts | 183° |
| 2026-04-22 06:59 | -32.91345 | 151.87303 | 4894 ft | 256 kts | 183° |
| 2026-04-22 06:59 | -32.93111 | 151.87149 | 5538 ft | 259 kts | 182° |
| 2026-04-22 06:59 | -32.94922 | 151.86995 | 6195 ft | 262 kts | 182° |
| 2026-04-22 06:59 | -32.96737 | 151.86842 | 6876 ft | 264 kts | 182° |
| 2026-04-22 07:00 | -32.98572 | 151.86690 | 7567 ft | 267 kts | 182° |
| 2026-04-22 07:00 | -33.00426 | 151.86537 | 8264 ft | 269 kts | 181° |
| 2026-04-22 07:00 | -33.02292 | 151.86383 | 8949 ft | 272 kts | 181° |
| 2026-04-22 07:00 | -33.04181 | 151.86234 | 9629 ft | 274 kts | 179° |
| 2026-04-22 07:01 | -33.06092 | 151.86195 | 10367 ft | 275 kts | 177° |
| 2026-04-22 07:01 | -33.08016 | 151.86206 | 10922 ft | 283 kts | 176° |
| 2026-04-22 07:01 | -33.10048 | 151.86223 | 11231 ft | 299 kts | 177° |
| 2026-04-22 07:01 | -33.12173 | 151.86238 | 11523 ft | 315 kts | 177° |
| 2026-04-22 07:02 | -33.14429 | 151.86250 | 11807 ft | 330 kts | 177° |
| 2026-04-22 07:02 | -33.16777 | 151.86263 | 12071 ft | 345 kts | 177° |
| 2026-04-22 07:02 | -33.19246 | 151.86273 | 12324 ft | 359 kts | 177° |
| 2026-04-22 07:02 | -33.21760 | 151.86391 | 12562 ft | 370 kts | 174° |
| 2026-04-22 07:03 | -33.24349 | 151.86687 | 12942 ft | 377 kts | 172° |
| 2026-04-22 07:03 | -33.26983 | 151.87044 | 13484 ft | 380 kts | 171° |
| 2026-04-22 07:03 | -33.29666 | 151.87415 | 14020 ft | 383 kts | 171° |
| 2026-04-22 07:03 | -33.32335 | 151.87785 | 14547 ft | 385 kts | 171° |
| 2026-04-22 07:04 | -33.34994 | 151.88156 | 15067 ft | 387 kts | 171° |
| 2026-04-22 07:04 | -33.37660 | 151.88440 | 15578 ft | 391 kts | 177° |
| 2026-04-22 07:04 | -33.40397 | 151.88023 | 16090 ft | 397 kts | 191° |
| 2026-04-22 07:04 | -33.42965 | 151.86832 | 16577 ft | 404 kts | 204° |
| 2026-04-22 07:05 | -33.45377 | 151.85042 | 17055 ft | 408 kts | 209° |
| 2026-04-22 07:05 | -33.47761 | 151.83156 | 17501 ft | 410 kts | 210° |
| 2026-04-22 07:05 | -33.50134 | 151.81261 | 17928 ft | 413 kts | 210° |
| 2026-04-22 07:05 | -33.52537 | 151.79344 | 18357 ft | 415 kts | 210° |
| 2026-04-22 07:06 | -33.54915 | 151.77452 | 18769 ft | 417 kts | 210° |
| 2026-04-22 07:06 | -33.57339 | 151.75528 | 19156 ft | 419 kts | 210° |
| 2026-04-22 07:06 | -33.59776 | 151.73593 | 19565 ft | 420 kts | 209° |
| 2026-04-22 07:06 | -33.62199 | 151.71669 | 19962 ft | 421 kts | 209° |
| 2026-04-22 07:07 | -33.64646 | 151.69728 | 20356 ft | 423 kts | 209° |
| 2026-04-22 07:07 | -33.67095 | 151.67783 | 20724 ft | 424 kts | 209° |
| 2026-04-22 07:07 | -33.69572 | 151.65814 | 21090 ft | 426 kts | 209° |
| 2026-04-22 07:07 | -33.72051 | 151.63844 | 21434 ft | 427 kts | 209° |
| 2026-04-22 07:08 | -33.74538 | 151.61867 | 21781 ft | 429 kts | 209° |
| 2026-04-22 07:08 | -33.77032 | 151.59883 | 21980 ft | 434 kts | 209° |
| 2026-04-22 07:08 | -33.79567 | 151.57864 | 22204 ft | 437 kts | 209° |
| 2026-04-22 07:08 | -33.82097 | 151.55847 | 22483 ft | 439 kts | 209° |
| 2026-04-22 07:09 | -33.84748 | 151.53734 | 22818 ft | 440 kts | 210° |
| 2026-04-22 07:09 | -33.87367 | 151.51642 | 23128 ft | 441 kts | 210° |
| 2026-04-22 07:09 | -33.89936 | 151.49587 | 23377 ft | 443 kts | 209° |
| 2026-04-22 07:09 | -33.92510 | 151.47531 | 23652 ft | 445 kts | 210° |
| 2026-04-22 07:10 | -33.95153 | 151.45415 | 24054 ft | 444 kts | 210° |
| 2026-04-22 07:10 | -33.97733 | 151.43349 | 24483 ft | 442 kts | 210° |
| 2026-04-22 07:10 | -34.00284 | 151.41303 | 24907 ft | 440 kts | 210° |
| 2026-04-22 07:10 | -34.02813 | 151.39275 | 25307 ft | 438 kts | 210° |
| 2026-04-22 07:11 | -34.05359 | 151.37230 | 25716 ft | 437 kts | 210° |
| 2026-04-22 07:11 | -34.07858 | 151.35223 | 26162 ft | 434 kts | 210° |
| 2026-04-22 07:11 | -34.10375 | 151.33200 | 26596 ft | 432 kts | 211° |
| 2026-04-22 07:11 | -34.12871 | 151.31192 | 27037 ft | 430 kts | 211° |
| 2026-04-22 07:12 | -34.15345 | 151.29199 | 27464 ft | 428 kts | 211° |
| 2026-04-22 07:12 | -34.17818 | 151.27206 | 27890 ft | 426 kts | 211° |
| 2026-04-22 07:12 | -34.20276 | 151.25221 | 28311 ft | 425 kts | 211° |
| 2026-04-22 07:12 | -34.22733 | 151.23239 | 28729 ft | 423 kts | 211° |
| 2026-04-22 07:13 | -34.25167 | 151.21271 | 29148 ft | 421 kts | 212° |
| 2026-04-22 07:13 | -34.27560 | 151.19338 | 29545 ft | 420 kts | 212° |
| 2026-04-22 07:13 | -34.29980 | 151.17345 | 29940 ft | 419 kts | 213° |
| 2026-04-22 07:13 | -34.32284 | 151.15201 | 30312 ft | 418 kts | 217° |
| 2026-04-22 07:14 | -34.34462 | 151.12874 | 30677 ft | 418 kts | 221° |
| 2026-04-22 07:14 | -34.36512 | 151.10362 | 31009 ft | 419 kts | 225° |
| 2026-04-22 07:14 | -34.38401 | 151.07709 | 31327 ft | 420 kts | 228° |
| 2026-04-22 07:14 | -34.40172 | 151.04898 | 31664 ft | 419 kts | 230° |
| 2026-04-22 07:15 | -34.41892 | 151.02081 | 32007 ft | 418 kts | 231° |
| 2026-04-22 07:15 | -34.43612 | 150.99245 | 32370 ft | 416 kts | 231° |
| 2026-04-22 07:15 | -34.45307 | 150.96446 | 32726 ft | 414 kts | 231° |
| 2026-04-22 07:15 | -34.46999 | 150.93655 | 33045 ft | 413 kts | 231° |
| 2026-04-22 07:16 | -34.48687 | 150.90869 | 33330 ft | 412 kts | 231° |
| 2026-04-22 07:16 | -34.50388 | 150.88060 | 33615 ft | 411 kts | 231° |
| 2026-04-22 07:16 | -34.52077 | 150.85268 | 33916 ft | 410 kts | 231° |
| 2026-04-22 07:16 | -34.53739 | 150.82520 | 34240 ft | 409 kts | 231° |
| 2026-04-22 07:17 | -34.55415 | 150.79753 | 34524 ft | 408 kts | 231° |
| 2026-04-22 07:17 | -34.57092 | 150.76979 | 34790 ft | 409 kts | 231° |
| 2026-04-22 07:17 | -34.58782 | 150.74191 | 35017 ft | 410 kts | 231° |
| 2026-04-22 07:17 | -34.60473 | 150.71397 | 35213 ft | 411 kts | 232° |
| 2026-04-22 07:18 | -34.62152 | 150.68616 | 35410 ft | 412 kts | 232° |
| 2026-04-22 07:18 | -34.63825 | 150.65840 | 35619 ft | 412 kts | 232° |
| 2026-04-22 07:18 | -34.65535 | 150.63001 | 35810 ft | 413 kts | 232° |
| 2026-04-22 07:18 | -34.67204 | 150.60223 | 35981 ft | 413 kts | 232° |
| 2026-04-22 07:19 | -34.68911 | 150.57387 | 36145 ft | 414 kts | 232° |
| 2026-04-22 07:19 | -34.70593 | 150.54585 | 36286 ft | 414 kts | 232° |
| 2026-04-22 07:19 | -34.72297 | 150.51746 | 36306 ft | 415 kts | 232° |
| 2026-04-22 07:20 | -34.75679 | 150.46101 | 36315 ft | 415 kts | 232° |
| 2026-04-22 07:20 | -34.79077 | 150.40424 | 36317 ft | 415 kts | 232° |
| 2026-04-22 07:21 | -34.82457 | 150.34763 | 36318 ft | 415 kts | 232° |
| 2026-04-22 07:21 | -34.85849 | 150.29074 | 36320 ft | 416 kts | 232° |
| 2026-04-22 07:22 | -34.89227 | 150.23401 | 36332 ft | 417 kts | 232° |
| 2026-04-22 07:22 | -34.92613 | 150.17705 | 36326 ft | 417 kts | 233° |
| 2026-04-22 07:23 | -34.96017 | 150.11968 | 36320 ft | 417 kts | 233° |
| 2026-04-22 07:23 | -34.99392 | 150.06268 | 36321 ft | 417 kts | 233° |
| 2026-04-22 07:24 | -35.02779 | 150.00534 | 36326 ft | 417 kts | 233° |
| 2026-04-22 07:24 | -35.06171 | 149.94791 | 36332 ft | 416 kts | 233° |
| 2026-04-22 07:25 | -35.87625 | 148.53958 | 36503 ft | 418 kts | 234° |
| 2026-04-22 07:25 | -35.89336 | 148.50937 | 36390 ft | 423 kts | 234° |
| 2026-04-22 07:25 | -35.91040 | 148.47934 | 36356 ft | 426 kts | 234° |
| 2026-04-22 07:26 | -35.94436 | 148.41919 | 36341 ft | 426 kts | 234° |
| 2026-04-22 07:26 | -35.97834 | 148.35879 | 36338 ft | 427 kts | 234° |
| 2026-04-22 07:27 | -36.01258 | 148.29778 | 36332 ft | 428 kts | 235° |
| 2026-04-22 07:27 | -36.04756 | 148.23528 | 36328 ft | 428 kts | 235° |
| 2026-04-22 07:28 | -36.09975 | 148.14177 | 36308 ft | 429 kts | 236° |
| 2026-04-22 07:28 | -36.13562 | 148.07759 | 36294 ft | 429 kts | 235° |
| 2026-04-22 07:29 | -36.17070 | 148.01497 | 36288 ft | 429 kts | 235° |
| 2026-04-22 07:29 | -36.20533 | 147.95297 | 36286 ft | 430 kts | 235° |
| 2026-04-22 07:30 | -36.24003 | 147.89067 | 36287 ft | 430 kts | 236° |
| 2026-04-22 07:30 | -36.27467 | 147.82831 | 36299 ft | 430 kts | 236° |
| 2026-04-22 07:31 | -36.30923 | 147.76596 | 36302 ft | 431 kts | 236° |
| 2026-04-22 07:31 | -36.34349 | 147.70412 | 36309 ft | 431 kts | 236° |
| 2026-04-22 07:32 | -36.37806 | 147.64159 | 36314 ft | 431 kts | 236° |
| 2026-04-22 07:32 | -36.41318 | 147.57787 | 36317 ft | 431 kts | 236° |
| 2026-04-22 07:33 | -36.44829 | 147.51401 | 36315 ft | 432 kts | 236° |
| 2026-04-22 07:33 | -36.48304 | 147.45067 | 36315 ft | 432 kts | 236° |
| 2026-04-22 07:34 | -36.51672 | 147.38913 | 36317 ft | 432 kts | 236° |
| 2026-04-22 07:34 | -36.55034 | 147.32761 | 36320 ft | 433 kts | 237° |
| 2026-04-22 07:35 | -36.58505 | 147.26398 | 36330 ft | 433 kts | 237° |
| 2026-04-22 07:35 | -36.61888 | 147.20180 | 36335 ft | 433 kts | 237° |
| 2026-04-22 07:36 | -36.65252 | 147.13986 | 36335 ft | 433 kts | 237° |
| 2026-04-22 07:36 | -36.68614 | 147.07782 | 36335 ft | 433 kts | 237° |
| 2026-04-22 07:37 | -36.71984 | 147.01564 | 36336 ft | 434 kts | 237° |
| 2026-04-22 07:37 | -36.75337 | 146.95378 | 36336 ft | 434 kts | 237° |
| 2026-04-22 07:38 | -36.78704 | 146.89143 | 36348 ft | 434 kts | 237° |
| 2026-04-22 07:38 | -36.82061 | 146.82916 | 36347 ft | 434 kts | 237° |
| 2026-04-22 07:39 | -36.85429 | 146.76649 | 36345 ft | 434 kts | 237° |
| 2026-04-22 07:39 | -36.88772 | 146.70416 | 36345 ft | 434 kts | 237° |
| 2026-04-22 07:40 | -36.92126 | 146.64151 | 36341 ft | 433 kts | 237° |
| 2026-04-22 07:40 | -36.93778 | 146.61061 | 36145 ft | 428 kts | 237° |
| 2026-04-22 07:40 | -36.95419 | 146.57989 | 35539 ft | 426 kts | 237° |
| 2026-04-22 07:41 | -36.97052 | 146.54930 | 34775 ft | 426 kts | 237° |
| 2026-04-22 07:41 | -36.98687 | 146.51863 | 34019 ft | 427 kts | 237° |
| 2026-04-22 07:41 | -37.00336 | 146.48763 | 33181 ft | 429 kts | 237° |
| 2026-04-22 07:41 | -37.01988 | 146.45654 | 32288 ft | 432 kts | 237° |
| 2026-04-22 07:42 | -37.03644 | 146.42534 | 31386 ft | 435 kts | 237° |
| 2026-04-22 07:42 | -37.05317 | 146.39384 | 30479 ft | 438 kts | 237° |
| 2026-04-22 07:42 | -37.06990 | 146.36230 | 29567 ft | 440 kts | 237° |
| 2026-04-22 07:42 | -37.08680 | 146.33048 | 28612 ft | 443 kts | 238° |
| 2026-04-22 07:43 | -37.10388 | 146.29829 | 27585 ft | 448 kts | 238° |
| 2026-04-22 07:43 | -37.12143 | 146.26520 | 26480 ft | 453 kts | 238° |
| 2026-04-22 07:43 | -37.13948 | 146.23112 | 25295 ft | 458 kts | 238° |
| 2026-04-22 07:43 | -37.15773 | 146.19661 | 24107 ft | 463 kts | 238° |
| 2026-04-22 07:44 | -37.17611 | 146.16179 | 23296 ft | 458 kts | 238° |
| 2026-04-22 07:44 | -37.19389 | 146.12807 | 22582 ft | 452 kts | 238° |
| 2026-04-22 07:44 | -37.21161 | 146.09441 | 21829 ft | 447 kts | 238° |
| 2026-04-22 07:44 | -37.22864 | 146.06201 | 21086 ft | 442 kts | 238° |
| 2026-04-22 07:45 | -37.24567 | 146.02956 | 20337 ft | 439 kts | 238° |
| 2026-04-22 07:45 | -37.26232 | 145.99780 | 19624 ft | 435 kts | 238° |
| 2026-04-22 07:45 | -37.27908 | 145.96582 | 18910 ft | 431 kts | 237° |
| 2026-04-22 07:45 | -37.29544 | 145.93457 | 18226 ft | 427 kts | 237° |
| 2026-04-22 07:46 | -37.31163 | 145.90369 | 17560 ft | 423 kts | 237° |
| 2026-04-22 07:46 | -37.32781 | 145.87295 | 16901 ft | 419 kts | 237° |
| 2026-04-22 07:46 | -37.34377 | 145.84262 | 16260 ft | 415 kts | 237° |
| 2026-04-22 07:46 | -37.35950 | 145.81264 | 15624 ft | 412 kts | 237° |
| 2026-04-22 07:47 | -37.37528 | 145.78255 | 15000 ft | 408 kts | 237° |
| 2026-04-22 07:47 | -37.39074 | 145.75299 | 14372 ft | 405 kts | 237° |
| 2026-04-22 07:47 | -37.40602 | 145.72372 | 13741 ft | 401 kts | 238° |
| 2026-04-22 07:47 | -37.42133 | 145.69443 | 13108 ft | 398 kts | 237° |
| 2026-04-22 07:48 | -37.43622 | 145.66585 | 12470 ft | 395 kts | 237° |
| 2026-04-22 07:48 | -37.45130 | 145.63736 | 11826 ft | 392 kts | 236° |
| 2026-04-22 07:48 | -37.46715 | 145.60965 | 11168 ft | 389 kts | 234° |
| 2026-04-22 07:48 | -37.48303 | 145.58238 | 10524 ft | 386 kts | 233° |
| 2026-04-22 07:49 | -37.49897 | 145.55504 | 9872 ft | 383 kts | 233° |
| 2026-04-22 07:49 | -37.51477 | 145.52791 | 9300 ft | 377 kts | 233° |
| 2026-04-22 07:49 | -37.53012 | 145.50150 | 9042 ft | 362 kts | 233° |
| 2026-04-22 07:49 | -37.54456 | 145.47661 | 8810 ft | 349 kts | 233° |
| 2026-04-22 07:50 | -37.55880 | 145.45207 | 8585 ft | 337 kts | 233° |
| 2026-04-22 07:50 | -37.57224 | 145.42888 | 8376 ft | 325 kts | 233° |
| 2026-04-22 07:50 | -37.58453 | 145.40767 | 8186 ft | 314 kts | 233° |